Time;durP1;ratioP1;P1;durP2;ratioP2;P2;SDS_P1;SDS_P2;PMS_P1;PMS_P2;Temp;Humidity;BMP_temperature;BMP_pressure;BME280_temperature;BME280_humidity;BME280_pressure;Samples;Min_cycle;Max_cycle;Signal;HPM_P1;HPM_P2
2023/10/11 04:01:37;;;;;;;0.60;0.10;;;17.50;92.20;;;;;;5333098;23;20504;-78
2023/10/11 04:04:05;;;;;;;0.60;0.13;;;17.30;97.30;;;;;;4919125;29;20481;-78
2023/10/11 04:06:34;;;;;;;0.80;0.70;;;17.30;97.80;;;;;;4918550;29;20489;-78
2023/10/11 04:09:03;;;;;;;2.60;1.20;;;17.20;98.10;;;;;;4919845;29;20488;-77
2023/10/11 04:11:38;;;;;;;0.60;0.20;;;17.10;93.80;;;;;;4920120;29;20481;-77
2023/10/11 04:14:12;;;;;;;0.60;0.10;;;17.10;99.10;;;;;;4920550;29;20965;-77
2023/10/11 04:16:44;;;;;;;1.03;0.50;;;17.10;99.10;;;;;;4921673;29;21023;-77
2023/10/11 04:19:12;;;;;;;0.70;0.40;;;18.70;95.30;;;;;;4922955;29;20444;-77
2023/10/11 04:21:54;;;;;;;0.60;0.10;;;17.10;94.90;;;;;;4903722;29;20476;-77
2023/10/11 04:24:22;;;;;;;0.70;0.30;;;17.00;99.90;;;;;;4918087;29;20457;-78
2023/10/11 04:26:56;;;;;;;0.60;0.20;;;16.90;99.70;;;;;;4915802;29;20505;-76
2023/10/11 04:29:31;;;;;;;0.60;0.10;;;16.90;99.90;;;;;;4916265;29;20449;-76
2023/10/11 04:32:13;;;;;;;3.23;2.30;;;17.00;96.70;;;;;;4897822;29;20514;-77
2023/10/11 04:34:48;;;;;;;0.60;0.10;;;17.00;99.90;;;;;;4898433;29;20552;-77
2023/10/11 04:37:27;;;;;;;0.60;0.30;;;17.00;99.90;;;;;;4901818;29;20448;-76
2023/10/11 04:39:57;;;;;;;0.60;0.10;;;16.90;99.90;;;;;;4898126;29;20475;-76
2023/10/11 04:42:29;;;;;;;2.10;0.30;;;16.80;96.90;;;;;;4900206;29;20498;-76
2023/10/11 04:44:57;;;;;;;0.70;0.50;;;16.80;99.90;;;;;;4897993;29;20475;-76
2023/10/11 04:47:49;;;;;;;0.60;0.20;;;16.70;99.90;;;;;;4912117;29;20518;-76
2023/10/11 04:50:15;;;;;;;0.83;0.83;;;16.70;99.30;;;;;;4904708;29;20517;-76
2023/10/11 04:52:48;;;;;;;0.60;0.10;;;16.70;99.90;;;;;;4909716;29;20541;-76
2023/10/11 04:55:16;;;;;;;0.60;0.20;;;19.00;99.90;;;;;;4895442;29;20879;-77
2023/10/11 04:58:04;;;;;;;0.80;0.77;;;16.60;99.90;;;;;;4911473;29;20453;-77
2023/10/11 05:00:43;;;;;;;0.60;0.20;;;16.60;99.90;;;;;;4918155;29;20472;-77
2023/10/11 05:03:17;;;;;;;0.60;0.10;;;16.60;99.90;;;;;;4891490;29;20475;-76
2023/10/11 05:05:58;;;;;;;0.60;0.10;;;16.70;99.90;;;;;;4897229;29;20904;-77
2023/10/11 05:08:51;;;;;;;3.33;2.37;;;16.70;99.90;;;;;;4893476;29;20576;-76
2023/10/11 05:11:31;;;;;;;4.27;1.37;;;16.60;99.90;;;;;;4891673;29;20480;-76
2023/10/11 05:14:07;;;;;;;9.13;2.90;;;16.50;99.90;;;;;;4898445;29;20816;-76
2023/10/11 05:16:44;;;;;;;1.00;0.87;;;16.40;99.90;;;;;;4898330;29;20449;-76
2023/10/11 05:19:20;;;;;;;0.60;0.20;;;16.50;99.90;;;;;;4897185;29;20516;-77
2023/10/11 05:21:53;;;;;;;0.60;0.10;;;16.50;99.90;;;;;;4906490;29;20469;-76
2023/10/11 05:24:43;;;;;;;0.60;0.10;;;16.50;99.90;;;;;;4901309;29;20530;-77
2023/10/11 05:27:36;;;;;;;0.60;0.10;;;17.90;99.90;;;;;;4894605;29;20520;-77
2023/10/11 05:30:11;;;;;;;0.60;0.10;;;16.50;99.90;;;;;;4912701;29;20430;-76
2023/10/11 05:32:49;;;;;;;0.60;0.10;;;16.50;99.90;;;;;;4909781;29;20464;-75
2023/10/11 05:35:53;;;;;;;0.60;0.10;;;16.50;99.90;;;;;;4915918;29;20473;-76
2023/10/11 05:52:17;;;;;;;0.60;0.10;;;16.30;99.90;;;;;;4882766;29;20500;-76
2023/10/11 05:54:46;;;;;;;0.97;0.77;;;16.20;99.90;;;;;;4881284;29;20466;-75
2023/10/11 05:57:15;;;;;;;0.70;0.33;;;16.20;99.90;;;;;;4890940;29;20459;-75
2023/10/11 05:59:43;;;;;;;0.60;0.10;;;16.20;99.90;;;;;;4895282;29;20449;-76
2023/10/11 06:02:14;;;;;;;1.37;1.20;;;16.10;99.90;;;;;;4896995;29;20908;-76
2023/10/11 06:04:42;;;;;;;2.10;2.00;;;16.10;99.90;;;;;;4899178;29;20500;-77
2023/10/11 06:07:12;;;;;;;1.07;0.60;;;16.20;99.90;;;;;;4899949;29;20580;-77
2023/10/11 06:09:45;;;;;;;0.80;0.70;;;16.20;99.90;;;;;;4896550;29;20832;-76
2023/10/11 06:15:03;;;;;;;0.70;0.50;;;16.10;99.90;;;;;;4902950;29;20450;-75
2023/10/11 06:17:41;;;;;;;0.93;0.83;;;16.10;99.90;;;;;;4904875;29;20502;-76
2023/10/11 06:20:23;;;;;;;0.97;0.77;;;15.90;99.90;;;;;;4890173;29;20442;-76
2023/10/11 06:22:51;;;;;;;1.40;0.93;;;15.90;99.90;;;;;;4890853;29;20456;-77
2023/10/11 06:25:49;;;;;;;1.67;0.83;;;16.00;99.90;;;;;;4893255;29;20451;-77
2023/10/11 06:28:13;;;;;;;0.83;0.83;;;16.10;99.90;;;;;;4892684;29;20499;-76
2023/10/11 06:30:43;;;;;;;0.80;0.40;;;16.20;99.90;;;;;;4898304;29;20481;-75
2023/10/11 06:33:12;;;;;;;1.40;0.63;;;16.20;99.90;;;;;;4892030;29;20463;-76
2023/10/11 06:35:45;;;;;;;2.90;0.80;;;16.00;99.90;;;;;;4897980;29;20463;-76
2023/10/11 06:38:13;;;;;;;0.60;0.20;;;16.00;99.90;;;;;;4898445;29;20486;-76
2023/10/11 06:40:47;;;;;;;2.53;2.33;;;;;;;;;;4898444;29;21062;-78
2023/10/11 06:43:15;;;;;;;0.60;0.20;;;16.00;99.90;;;;;;4893539;29;20486;-75
2023/10/11 06:45:44;;;;;;;0.60;0.10;;;16.00;99.90;;;;;;4895333;29;20505;-77
2023/10/11 06:48:14;;;;;;;0.60;0.30;;;16.00;99.90;;;;;;4892657;29;20547;-77
2023/10/11 06:50:42;;;;;;;0.80;0.60;;;16.20;99.90;;;;;;4899964;29;20477;-75
2023/10/11 06:53:11;;;;;;;1.50;1.20;;;16.20;99.90;;;;;;4899895;29;21035;-75
2023/10/11 06:55:47;;;;;;;0.60;0.10;;;16.30;99.90;;;;;;4892270;29;20454;-75
2023/10/11 06:58:19;;;;;;;1.57;0.50;;;16.30;99.90;;;;;;4894862;29;20944;-76
2023/10/11 07:00:47;;;;;;;0.70;0.43;;;16.30;99.90;;;;;;4897523;29;20486;-76
2023/10/11 07:06:11;;;;;;;0.83;0.80;;;16.30;99.90;;;;;;4894801;29;20457;-77
2023/10/11 07:08:49;;;;;;;1.70;1.60;;;16.20;99.90;;;;;;4902902;29;21373;-75
2023/10/11 07:11:50;;;;;;;1.23;1.13;;;16.30;99.90;;;;;;4892364;29;20513;-75
2023/10/11 07:14:18;;;;;;;2.40;2.20;;;16.30;99.90;;;;;;4900362;29;20525;-77
2023/10/11 07:16:47;;;;;;;1.80;0.83;;;16.30;99.90;;;;;;4901280;29;20543;-76
2023/10/11 07:19:16;;;;;;;0.90;0.50;;;16.40;99.90;;;;;;4901144;29;20454;-76
2023/10/11 07:21:53;;;;;;;3.57;1.23;;;16.40;99.90;;;;;;4900810;29;20498;-77
2023/10/11 07:24:19;;;;;;;1.17;0.80;;;16.40;99.90;;;;;;4895600;29;20535;-76
2023/10/11 07:26:49;;;;;;;0.60;0.20;;;16.30;99.90;;;;;;4901066;29;20571;-78
2023/10/11 07:29:20;;;;;;;3.13;1.90;;;16.40;99.90;;;;;;4901681;29;20465;-74
2023/10/11 07:31:52;;;;;;;1.73;1.07;;;16.40;99.90;;;;;;4900254;29;20470;-77
2023/10/11 07:34:20;;;;;;;1.27;0.73;;;16.40;99.90;;;;;;4899052;29;20466;-77
2023/10/11 07:36:50;;;;;;;1.37;1.27;;;16.40;99.90;;;;;;4899761;29;20453;-76
2023/10/11 07:39:26;;;;;;;0.63;0.37;;;16.40;99.90;;;;;;4898159;29;20463;-76
2023/10/11 07:42:06;;;;;;;4.50;1.57;;;16.40;99.90;;;;;;4898434;29;20477;-76
2023/10/11 07:44:37;;;;;;;0.60;0.20;;;16.30;99.90;;;;;;4894468;29;20465;-76
2023/10/11 07:47:14;;;;;;;6.23;4.43;;;16.40;99.90;;;;;;4891353;29;20493;-76
2023/10/11 07:49:42;;;;;;;2.30;1.63;;;16.40;99.90;;;;;;4898686;29;20484;-74
2023/10/11 07:52:14;;;;;;;3.70;2.10;;;16.40;99.90;;;;;;4897166;29;20533;-76
2023/10/11 07:54:43;;;;;;;0.60;0.20;;;16.50;99.90;;;;;;4894350;29;20449;-76
2023/10/11 07:57:14;;;;;;;5.43;1.63;;;16.50;99.90;;;;;;4881908;29;20943;-74
2023/10/11 07:59:44;;;;;;;2.93;0.73;;;16.60;99.90;;;;;;4887363;29;20461;-75
2023/10/11 08:02:26;;;;;;;0.90;0.23;;;;;;;;;;4893778;29;20497;-75
2023/10/11 08:04:56;;;;;;;3.93;3.13;;;16.70;99.90;;;;;;4893761;29;20525;-75
2023/10/11 08:07:25;;;;;;;0.60;0.10;;;16.80;99.90;;;;;;4898284;29;21003;-75
2023/10/11 08:09:55;;;;;;;5.40;2.03;;;16.90;99.90;;;;;;4898610;29;20557;-74
2023/10/11 08:12:24;;;;;;;1.53;0.97;;;16.90;99.90;;;;;;4897923;29;20470;-75
2023/10/11 08:14:56;;;;;;;0.80;0.60;;;16.90;99.90;;;;;;4887341;29;20470;-74
2023/10/11 08:17:29;;;;;;;0.80;0.40;;;16.80;99.90;;;;;;4895952;29;21216;-74
2023/10/11 08:20:02;;;;;;;4.80;2.53;;;16.70;99.90;;;;;;4897594;29;20456;-76
2023/10/11 08:22:32;;;;;;;1.33;0.93;;;16.90;99.90;;;;;;4898014;29;20831;-76
2023/10/11 08:25:01;;;;;;;3.00;2.50;;;16.90;99.90;;;;;;4897455;29;20481;-75
2023/10/11 08:27:30;;;;;;;0.90;0.63;;;17.00;99.90;;;;;;4895729;29;20537;-76
2023/10/11 08:30:08;;;;;;;1.63;0.93;;;17.10;99.90;;;;;;4897939;29;20463;-74
2023/10/11 08:32:42;;;;;;;1.50;1.40;;;17.10;99.90;;;;;;4899210;29;20456;-76
2023/10/11 08:35:16;;;;;;;1.83;1.17;;;17.20;99.90;;;;;;4908783;29;20445;-75
2023/10/11 08:37:52;;;;;;;1.30;1.10;;;17.30;99.90;;;;;;4899038;29;20540;-75
2023/10/11 08:40:22;;;;;;;1.63;0.67;;;17.30;99.90;;;;;;4901312;29;20453;-75
2023/10/11 08:42:53;;;;;;;0.60;0.13;;;17.30;99.90;;;;;;4902129;29;20445;-75
2023/10/11 08:45:25;;;;;;;1.63;0.47;;;17.30;99.90;;;;;;4898547;29;20516;-75
2023/10/11 08:47:55;;;;;;;1.70;1.27;;;17.40;99.90;;;;;;4897479;29;21034;-75
2023/10/11 08:50:23;;;;;;;3.83;1.97;;;17.50;99.90;;;;;;4895384;29;20465;-74
2023/10/11 08:52:52;;;;;;;0.60;0.20;;;17.50;99.90;;;;;;4896597;29;20501;-76
2023/10/11 08:55:24;;;;;;;3.60;1.33;;;17.50;99.90;;;;;;4889608;29;20447;-75
2023/10/11 08:57:54;;;;;;;2.10;2.00;;;17.50;99.90;;;;;;4898751;29;20993;-76
2023/10/11 09:00:29;;;;;;;1.27;1.17;;;17.70;99.90;;;;;;4897973;29;20563;-75
2023/10/11 09:02:58;;;;;;;0.60;0.10;;;17.70;99.90;;;;;;4899753;29;20489;-76
2023/10/11 09:05:42;;;;;;;0.60;0.20;;;17.90;99.90;;;;;;4901040;29;20450;-76
2023/10/11 09:08:21;;;;;;;1.03;0.90;;;17.90;99.90;;;;;;4891208;29;20490;-77
2023/10/11 09:10:51;;;;;;;0.80;0.40;;;18.10;99.90;;;;;;4902988;29;20595;-74
2023/10/11 09:13:28;;;;;;;0.70;0.30;;;18.10;99.90;;;;;;4890356;29;20811;-76
2023/10/11 09:15:56;;;;;;;0.60;0.10;;;18.20;99.90;;;;;;4899416;29;20477;-76
2023/10/11 09:18:31;;;;;;;1.27;0.40;;;18.20;99.90;;;;;;4902128;29;20447;-75
2023/10/11 09:21:09;;;;;;;0.60;0.10;;;18.40;99.20;;;;;;4894492;29;20503;-75
2023/10/11 09:23:37;;;;;;;3.90;2.10;;;18.40;99.40;;;;;;4900436;29;20499;-76
2023/10/11 09:26:08;;;;;;;4.93;2.47;;;18.40;97.90;;;;;;4901947;29;20455;-75
2023/10/11 09:28:40;;;;;;;2.30;1.73;;;18.30;99.90;;;;;;4899527;29;20487;-77
2023/10/11 09:31:12;;;;;;;14.13;12.93;;;18.40;97.80;;;;;;4893154;29;21062;-76
2023/10/11 09:33:45;;;;;;;2.80;1.83;;;18.40;99.90;;;;;;4888624;29;20918;-76
2023/10/11 09:36:14;;;;;;;0.60;0.20;;;18.40;99.90;;;;;;4891001;29;20989;-79
2023/10/11 09:38:43;;;;;;;1.87;1.00;;;18.50;99.90;;;;;;4900545;29;20503;-75
2023/10/11 09:41:11;;;;;;;0.70;0.40;;;18.60;99.00;;;;;;4896821;29;20556;-75
2023/10/11 09:43:44;;;;;;;0.60;0.10;;;18.70;99.90;;;;;;4903098;29;20531;-76
2023/10/11 09:46:14;;;;;;;7.20;2.77;;;18.80;99.90;;;;;;4904247;29;20492;-76
2023/10/11 09:48:43;;;;;;;0.80;0.50;;;18.80;97.50;;;;;;4903232;29;20557;-75
2023/10/11 09:51:14;;;;;;;1.10;0.77;;;19.10;97.60;;;;;;4901331;29;20530;-75
2023/10/11 09:53:49;;;;;;;0.60;0.20;;;19.10;99.90;;;;;;4901827;29;20455;-76
2023/10/11 09:56:44;;;;;;;0.73;0.27;;;19.20;99.90;;;;;;4895311;29;20509;-75
2023/10/11 09:59:23;;;;;;;0.60;0.20;;;19.10;99.90;;;;;;4891731;29;20461;-76
2023/10/11 10:02:02;;;;;;;1.03;0.63;;;19.30;96.90;;;;;;4901334;29;20490;-75
2023/10/11 10:04:55;;;;;;;0.60;0.20;;;19.30;99.90;;;;;;4901033;29;20456;-76
2023/10/11 10:07:26;;;;;;;0.77;0.40;;;19.40;99.90;;;;;;4903178;29;20463;-75
2023/10/11 10:09:59;;;;;;;0.60;0.13;;;19.40;99.90;;;;;;4901210;29;20817;-76
2023/10/11 10:12:33;;;;;;;1.90;0.63;;;19.50;95.80;;;;;;4895634;29;20518;-78
2023/10/11 10:15:13;;;;;;;1.40;1.17;;;19.50;99.90;;;;;;4900822;29;20466;-75
2023/10/11 10:18:17;;;;;;;0.70;0.30;;;19.60;99.90;;;;;;4899579;29;20520;-75
2023/10/11 10:20:46;;;;;;;1.57;0.60;;;;;;;;;;4899165;29;20558;-75
2023/10/11 10:23:30;;;;;;;4.53;2.47;;;19.70;95.00;;;;;;4894974;29;20451;-78
2023/10/11 10:26:29;;;;;;;0.80;0.50;;;19.90;94.10;;;;;;4905077;29;20456;-74
2023/10/11 10:28:57;;;;;;;0.80;0.80;;;20.00;99.00;;;;;;4897279;29;20991;-75
2023/10/11 10:31:27;;;;;;;1.00;0.73;;;20.10;93.00;;;;;;4900330;29;20485;-75
2023/10/11 10:34:29;;;;;;;0.60;0.10;;;20.20;98.20;;;;;;4910163;29;20456;-75
2023/10/11 10:37:02;;;;;;;0.80;0.60;;;20.30;91.60;;;;;;4900565;29;20483;-77
2023/10/11 10:39:36;;;;;;;0.60;0.10;;;20.30;96.90;;;;;;4902609;29;20489;-76
2023/10/11 10:42:12;;;;;;;0.70;0.40;;;20.30;90.40;;;;;;4913356;29;21025;-74
2023/10/11 10:44:54;;;;;;;0.70;0.40;;;20.30;96.40;;;;;;4901254;29;20484;-77
2023/10/11 10:47:25;;;;;;;0.60;0.10;;;20.40;95.60;;;;;;4904787;29;20554;-76
2023/10/11 10:49:55;;;;;;;1.93;1.37;;;20.60;91.50;;;;;;4907576;29;20487;-75
2023/10/11 10:52:25;;;;;;;4.40;2.97;;;20.60;90.80;;;;;;4902363;29;20479;-77
2023/10/11 10:55:05;;;;;;;0.73;0.50;;;20.70;95.30;;;;;;4894606;29;20524;-76
2023/10/11 10:57:36;;;;;;;1.00;0.60;;;20.80;95.30;;;;;;4901496;29;20462;-75
2023/10/11 11:00:07;;;;;;;3.10;1.83;;;20.90;94.30;;;;;;4901338;29;20476;-79
2023/10/11 11:02:38;;;;;;;0.60;0.10;;;20.90;87.70;;;;;;4900919;29;20497;-75
2023/10/11 11:05:14;;;;;;;0.60;0.10;;;21.00;94.00;;;;;;4901744;29;20457;-75
2023/10/11 11:07:47;;;;;;;0.80;0.40;;;21.10;89.10;;;;;;4903137;29;20459;-76
2023/10/11 11:10:19;;;;;;;1.77;0.50;;;21.30;85.70;;;;;;4891098;29;20456;-76
2023/10/11 11:12:47;;;;;;;0.60;0.10;;;21.30;93.10;;;;;;4893465;29;20484;-77
2023/10/11 11:15:20;;;;;;;5.70;2.57;;;21.40;92.10;;;;;;4898901;29;20455;-77
2023/10/11 11:17:51;;;;;;;10.83;2.07;;;21.50;91.40;;;;;;4898630;29;20450;-75
2023/10/11 11:20:29;;;;;;;0.60;0.20;;;21.50;83.50;;;;;;4898903;29;20859;-76
2023/10/11 11:22:57;;;;;;;2.70;1.00;;;21.60;92.70;;;;;;4896593;29;20843;-74
2023/10/11 11:25:27;;;;;;;0.60;0.10;;;21.60;78.60;;;;;;4887768;29;20509;-77
2023/10/11 11:28:07;;;;;;;1.67;1.47;;;;;;;;;;4900088;29;20460;-76
2023/10/11 11:30:36;;;;;;;0.73;0.30;;;21.90;82.00;;;;;;4898744;29;20992;-76
2023/10/11 11:33:27;;;;;;;0.60;0.10;;;21.90;91.40;;;;;;4908859;29;20452;-75
2023/10/11 11:35:56;;;;;;;0.60;0.10;;;22.00;90.10;;;;;;4899005;29;20453;-75
2023/10/11 11:38:23;;;;;;;5.20;1.57;;;22.10;90.60;;;;;;4898694;29;20442;-76
2023/10/11 11:40:52;;;;;;;0.77;0.40;;;22.30;75.90;;;;;;4896108;29;20997;-76
2023/10/11 11:43:21;;;;;;;0.60;0.20;;;22.30;86.30;;;;;;4893556;29;20463;-76
2023/10/11 11:45:51;;;;;;;0.80;0.53;;;21.30;86.50;;;;;;4899714;29;20489;-76
2023/10/11 11:48:23;;;;;;;1.10;0.80;;;22.50;86.50;;;;;;4892476;29;20514;-75
2023/10/11 11:50:55;;;;;;;2.30;1.27;;;22.60;73.90;;;;;;4899054;29;20469;-77
2023/10/11 11:53:24;;;;;;;4.63;1.23;;;22.60;85.00;;;;;;4893066;29;20826;-76
2023/10/11 11:55:51;;;;;;;0.60;0.20;;;22.70;82.90;;;;;;4899373;29;20453;-75
2023/10/11 11:58:21;;;;;;;1.20;0.37;;;22.80;85.60;;;;;;4895998;29;20489;-75
2023/10/11 12:01:08;;;;;;;0.60;0.20;;;22.90;73.30;;;;;;4898285;29;20485;-76
2023/10/11 12:03:39;;;;;;;2.30;0.77;;;22.90;85.10;;;;;;4886413;29;20522;-75
2023/10/11 12:06:21;;;;;;;0.60;0.30;;;23.10;83.10;;;;;;4898313;29;20452;-77
2023/10/11 12:08:57;;;;;;;0.77;0.33;;;23.20;82.40;;;;;;4898633;29;20499;-75
2023/10/11 12:11:28;;;;;;;0.60;0.20;;;23.30;71.30;;;;;;4892200;29;20465;-76
2023/10/11 12:13:58;;;;;;;2.80;1.50;;;23.30;71.20;;;;;;4898230;29;20450;-76
2023/10/11 12:16:26;;;;;;;0.60;0.10;;;23.40;79.40;;;;;;4898123;29;20521;-75
2023/10/11 12:18:58;;;;;;;0.70;0.20;;;23.50;67.70;;;;;;4906060;29;20857;-79
2023/10/11 12:24:10;;;;;;;0.70;0.10;;;;;;;;;;4902392;29;20484;-73
2023/10/11 12:26:58;;;;;;;1.07;0.70;;;23.80;62.40;;;;;;4903406;29;20524;-74
2023/10/11 12:29:27;;;;;;;0.93;0.43;;;24.00;59.60;;;;;;4907541;29;20768;-74
2023/10/11 12:31:56;;;;;;;0.93;0.60;;;;;;;;;;4909033;29;21109;-75
2023/10/11 12:34:25;;;;;;;1.57;1.47;;;24.10;59.70;;;;;;4890105;29;20469;-73
2023/10/11 12:36:54;;;;;;;0.83;0.60;;;24.20;68.70;;;;;;4896143;29;20461;-74
2023/10/11 12:39:24;;;;;;;1.00;0.40;;;24.20;62.50;;;;;;4888255;29;20444;-74
2023/10/11 12:41:54;;;;;;;0.70;0.10;;;24.30;50.90;;;;;;4888387;29;20497;-73
2023/10/11 12:44:22;;;;;;;2.10;2.00;;;24.40;50.50;;;;;;4888553;29;20490;-73
2023/10/11 12:46:51;;;;;;;1.57;0.60;;;24.50;47.60;;;;;;4884969;29;20462;-73
2023/10/11 12:49:19;;;;;;;4.10;1.37;;;24.50;58.80;;;;;;4895585;29;20549;-74
2023/10/11 12:51:50;;;;;;;3.13;1.30;;;24.70;44.80;;;;;;4895390;29;21014;-73
2023/10/11 12:54:19;;;;;;;0.73;0.30;;;24.70;54.00;;;;;;4892152;29;20466;-75
2023/10/11 12:56:48;;;;;;;0.70;0.10;;;;;;;;;;4891319;29;20446;-74
2023/10/11 12:59:19;;;;;;;0.90;0.57;;;24.80;41.70;;;;;;4895560;29;20450;-75
2023/10/11 13:01:52;;;;;;;0.70;0.30;;;25.00;38.10;;;;;;4895997;29;20473;-76
2023/10/11 13:04:29;;;;;;;4.50;1.47;;;;;;;;;;4883551;29;20457;-75
2023/10/11 13:07:00;;;;;;;4.70;2.30;;;;;;;;;;4893055;29;20463;-76
2023/10/11 13:09:28;;;;;;;0.70;0.17;;;25.00;23.90;;;;;;4895639;29;21053;-75
2023/10/11 13:11:57;;;;;;;3.23;0.50;;;25.20;20.30;;;;;;4887511;29;20480;-75
2023/10/11 13:14:26;;;;;;;0.80;0.30;;;25.10;20.50;;;;;;4877084;29;20508;-75
2023/10/11 13:16:58;;;;;;;2.00;0.60;;;25.20;29.00;;;;;;4888175;29;20454;-75
2023/10/11 13:19:27;;;;;;;0.70;0.20;;;25.40;20.10;;;;;;4884545;29;21008;-75
2023/10/11 13:21:56;;;;;;;1.70;0.70;;;25.40;17.70;;;;;;4892062;29;20469;-77
2023/10/11 13:24:27;;;;;;;2.63;2.40;;;25.40;15.20;;;;;;4882050;29;20466;-76
2023/10/11 13:26:57;;;;;;;2.40;0.93;;;25.50;13.90;;;;;;4895703;29;20449;-74
2023/10/11 13:29:27;;;;;;;0.70;0.10;;;25.60;14.30;;;;;;4887577;29;21038;-75
2023/10/11 13:31:56;;;;;;;1.07;0.43;;;25.60;12.60;;;;;;4894387;29;20473;-75
2023/10/11 13:34:28;;;;;;;0.80;0.50;;;25.70;10.90;;;;;;4880651;29;20449;-76
2023/10/11 13:36:57;;;;;;;1.37;0.67;;;25.70;6.70;;;;;;4885937;29;20506;-75
2023/10/11 13:39:27;;;;;;;0.70;0.40;;;25.70;3.80;;;;;;4881260;29;21004;-75
2023/10/11 13:41:55;;;;;;;0.70;0.20;;;25.80;3.80;;;;;;4895558;29;20481;-75
2023/10/11 13:44:24;;;;;;;1.00;0.37;;;25.80;3.70;;;;;;4887388;29;20532;-75
2023/10/11 13:46:55;;;;;;;0.93;0.47;;;25.80;10.20;;;;;;4880991;29;20458;-75
2023/10/11 13:49:25;;;;;;;0.83;0.57;;;25.80;2.30;;;;;;4884522;29;20451;-73
2023/10/11 13:51:54;;;;;;;2.60;1.60;;;;;;;;;;4891519;29;20473;-73
2023/10/11 13:54:35;;;;;;;1.10;0.63;;;;;;;;;;4877902;29;20957;-74
2023/10/11 13:57:10;;;;;;;0.80;0.60;;;25.90;1.00;;;;;;4882036;29;20474;-73
2023/10/11 13:59:45;;;;;;;4.93;2.00;;;25.90;3.90;;;;;;4895364;29;20456;-73
2023/10/11 14:02:33;;;;;;;0.80;0.30;;;25.90;1.00;;;;;;4887958;29;21046;-73
2023/10/11 14:05:15;;;;;;;3.33;0.73;;;25.90;1.00;;;;;;4889746;29;20464;-73
2023/10/11 14:07:51;;;;;;;1.00;0.83;;;;;;;;;;4895551;29;20445;-76
2023/10/11 14:10:23;;;;;;;0.80;0.40;;;26.00;1.00;;;;;;4895188;29;20484;-75
2023/10/11 14:13:00;;;;;;;3.90;2.00;;;26.10;1.00;;;;;;4881286;29;20496;-74
2023/10/11 14:15:32;;;;;;;1.67;0.83;;;26.10;1.00;;;;;;4887878;29;20480;-74
2023/10/11 14:18:02;;;;;;;1.20;0.97;;;26.10;1.10;;;;;;4891243;29;20449;-73
2023/10/11 14:20:31;;;;;;;2.07;1.33;;;;;;;;;;4891645;29;20525;-73
2023/10/11 14:23:04;;;;;;;0.70;0.30;;;26.20;1.00;;;;;;4885252;29;20481;-76
2023/10/11 14:25:34;;;;;;;1.80;1.43;;;26.20;1.00;;;;;;4878111;29;20472;-75
2023/10/11 14:28:04;;;;;;;1.63;1.40;;;26.20;1.00;;;;;;4898647;29;20448;-73
2023/10/11 14:30:32;;;;;;;2.50;1.70;;;26.20;1.00;;;;;;4899535;29;20547;-74
2023/10/11 14:33:08;;;;;;;0.80;0.30;;;;;;;;;;4898397;29;20515;-73
2023/10/11 14:35:37;;;;;;;1.37;0.50;;;;;;;;;;4894841;29;20467;-75
2023/10/11 14:38:05;;;;;;;1.50;0.90;;;26.20;1.00;;;;;;4898134;29;20457;-75
2023/10/11 14:40:35;;;;;;;1.07;0.40;;;26.30;1.00;;;;;;4898219;29;20940;-75
2023/10/11 14:43:06;;;;;;;1.10;0.93;;;26.40;1.00;;;;;;4898316;29;20504;-76
2023/10/11 14:45:37;;;;;;;0.80;0.63;;;26.30;1.00;;;;;;4897626;29;20461;-75
2023/10/11 14:48:08;;;;;;;0.70;0.10;;;26.30;1.00;;;;;;4888184;29;20453;-74
2023/10/11 14:50:36;;;;;;;0.70;0.10;;;26.40;1.00;;;;;;4890541;29;20485;-75
2023/10/11 14:53:04;;;;;;;0.70;0.30;;;26.30;1.00;;;;;;4897949;29;20941;-74
2023/10/11 14:55:34;;;;;;;2.10;1.90;;;26.30;1.00;;;;;;4898244;29;20536;-74
2023/10/11 14:58:05;;;;;;;3.73;1.43;;;26.30;1.00;;;;;;4897251;29;20811;-72
2023/10/11 15:00:34;;;;;;;1.70;1.03;;;26.30;1.00;;;;;;4884309;29;20452;-75
2023/10/11 15:03:04;;;;;;;0.80;0.50;;;;;;;;;;4894753;29;20466;-74
2023/10/11 15:05:34;;;;;;;0.70;0.20;;;26.10;1.00;;;;;;4890952;29;20450;-74
2023/10/11 15:08:04;;;;;;;0.90;0.43;;;26.00;1.00;;;;;;4886661;29;20549;-75
2023/10/11 15:10:34;;;;;;;5.70;2.40;;;;;;;;;;4891568;29;20828;-74
2023/10/11 15:13:05;;;;;;;1.37;0.87;;;25.80;1.00;;;;;;4896804;29;20559;-76
2023/10/11 15:15:33;;;;;;;2.27;1.30;;;25.80;1.00;;;;;;4885007;29;20847;-74
2023/10/11 15:18:02;;;;;;;4.23;2.90;;;25.80;1.00;;;;;;4897395;29;20442;-75
2023/10/11 15:20:31;;;;;;;1.93;1.00;;;25.80;1.00;;;;;;4882073;29;20512;-75
2023/10/11 15:23:01;;;;;;;1.27;0.80;;;;;;;;;;4897226;29;20499;-73
2023/10/11 15:25:31;;;;;;;0.70;0.20;;;;;;;;;;4897461;29;20517;-73
2023/10/11 15:27:59;;;;;;;0.70;0.23;;;25.80;1.00;;;;;;4895414;29;20488;-75
2023/10/11 15:30:29;;;;;;;2.53;2.27;;;25.80;1.00;;;;;;4896828;29;20485;-74
2023/10/11 15:32:57;;;;;;;2.07;1.37;;;25.70;1.00;;;;;;4885091;29;20478;-73
2023/10/11 15:35:26;;;;;;;2.30;1.17;;;25.60;1.00;;;;;;4891537;29;20457;-75
2023/10/11 15:37:55;;;;;;;0.80;0.40;;;;;;;;;;4896959;29;20513;-73
2023/10/11 15:40:26;;;;;;;0.70;0.20;;;25.40;1.00;;;;;;4896026;29;20465;-75
2023/10/11 15:42:57;;;;;;;0.90;0.40;;;25.40;1.00;;;;;;4896838;29;20551;-76
2023/10/11 15:45:25;;;;;;;1.87;0.77;;;25.20;1.00;;;;;;4895701;29;20457;-75
2023/10/11 15:47:56;;;;;;;1.07;0.50;;;25.10;1.00;;;;;;4896689;29;20521;-76
2023/10/11 15:50:25;;;;;;;0.70;0.20;;;25.10;1.00;;;;;;4887957;29;20854;-74
2023/10/11 15:52:53;;;;;;;0.70;0.10;;;25.00;1.00;;;;;;4894832;29;20545;-73
2023/10/11 15:55:22;;;;;;;4.40;2.63;;;24.90;1.00;;;;;;4895166;29;20492;-75
2023/10/11 15:57:50;;;;;;;2.33;1.10;;;24.80;1.00;;;;;;4896360;29;20520;-71
2023/10/11 16:00:19;;;;;;;2.50;1.27;;;24.70;1.00;;;;;;4896090;29;20517;-74
2023/10/11 16:02:49;;;;;;;2.23;1.23;;;24.70;1.00;;;;;;4887697;29;20842;-74
2023/10/11 16:05:19;;;;;;;2.57;2.43;;;24.60;1.00;;;;;;4885516;29;20464;-73
2023/10/11 16:07:49;;;;;;;1.57;0.70;;;;;;;;;;4876536;29;20462;-73
2023/10/11 16:10:17;;;;;;;6.87;1.03;;;;;;;;;;4878237;29;20462;-74
2023/10/11 16:12:45;;;;;;;1.27;0.50;;;24.50;1.00;;;;;;4879055;29;20505;-74
2023/10/11 16:15:13;;;;;;;1.93;1.03;;;24.50;1.00;;;;;;4895538;29;20464;-74
2023/10/11 16:17:42;;;;;;;2.70;1.60;;;;;;;;;;4895645;29;20459;-75
2023/10/11 16:20:11;;;;;;;2.97;2.00;;;24.40;1.00;;;;;;4895626;29;20460;-75
2023/10/11 16:22:42;;;;;;;4.80;0.50;;;24.40;1.00;;;;;;4884723;29;20866;-74
2023/10/11 16:25:12;;;;;;;2.70;1.00;;;24.30;1.00;;;;;;4879593;29;20884;-73
2023/10/11 16:27:41;;;;;;;5.77;0.87;;;24.30;1.00;;;;;;4877386;29;20462;-76
2023/10/11 16:30:11;;;;;;;0.77;0.27;;;24.20;1.00;;;;;;4878714;29;20461;-72
2023/10/11 16:32:40;;;;;;;0.70;0.37;;;;;;;;;;4877167;29;20486;-74
2023/10/11 16:35:13;;;;;;;4.10;1.30;;;24.20;1.00;;;;;;4877497;29;20462;-73
2023/10/11 16:37:43;;;;;;;3.33;1.00;;;24.20;1.00;;;;;;4878638;29;20457;-74
2023/10/11 16:40:16;;;;;;;0.70;0.17;;;24.10;1.00;;;;;;4878561;29;20470;-75
2023/10/11 16:42:46;;;;;;;1.00;0.37;;;24.10;1.00;;;;;;4878500;29;20486;-74
2023/10/11 16:45:14;;;;;;;1.97;0.70;;;24.10;1.00;;;;;;4877324;29;20723;-73
2023/10/11 16:47:44;;;;;;;1.10;1.00;;;24.00;1.00;;;;;;4876881;29;20450;-73
2023/10/11 16:50:16;;;;;;;4.32;0.95;;;24.00;1.00;;;;;;4876489;29;20540;-75
2023/10/11 16:52:45;;;;;;;0.80;0.57;;;24.00;1.00;;;;;;4877130;29;20233;-74
2023/10/11 16:55:13;;;;;;;1.20;1.10;;;;;;;;;;4876564;29;20489;-75
2023/10/11 16:57:41;;;;;;;1.43;0.77;;;23.90;1.00;;;;;;4876540;29;20645;-74
2023/10/11 17:00:21;;;;;;;1.37;0.47;;;23.90;1.00;;;;;;4876754;29;20537;-72
2023/10/11 17:02:50;;;;;;;3.33;1.60;;;23.80;1.00;;;;;;4871666;29;20841;-76
2023/10/11 17:05:19;;;;;;;0.87;0.43;;;23.80;1.00;;;;;;4876950;29;20497;-75
2023/10/11 17:07:49;;;;;;;2.07;1.17;;;;;;;;;;4877580;29;20489;-73
2023/10/11 17:10:17;;;;;;;4.17;2.97;;;;;;;;;;4876056;29;20454;-74
2023/10/11 17:12:46;;;;;;;12.20;3.30;;;;;;;;;;4875322;29;20516;-72
2023/10/11 17:15:15;;;;;;;2.60;1.10;;;;;;;;;;4876448;29;20458;-73
2023/10/11 17:17:43;;;;;;;1.10;0.47;;;23.40;1.00;;;;;;4876318;29;20973;-74
2023/10/11 17:20:15;;;;;;;0.70;0.10;;;23.40;1.00;;;;;;4876551;29;20461;-74
2023/10/11 17:22:45;;;;;;;0.60;0.20;;;23.50;1.00;;;;;;4875846;29;20572;-73
2023/10/11 17:25:16;;;;;;;3.53;2.10;;;26.20;1.00;;;;;;4876106;29;20492;-73
2023/10/11 17:27:44;;;;;;;2.40;1.07;;;23.40;1.00;;;;;;4876175;29;20518;-74
2023/10/11 17:30:13;;;;;;;0.80;0.50;;;23.40;1.00;;;;;;4877155;29;20450;-73
2023/10/11 17:32:42;;;;;;;0.60;0.20;;;23.40;1.00;;;;;;4875803;29;20498;-72
2023/10/11 17:35:13;;;;;;;0.67;0.20;;;;;;;;;;4876440;29;20460;-75
2023/10/11 17:37:45;;;;;;;0.70;0.40;;;23.40;1.00;;;;;;4876061;29;20946;-74
2023/10/11 17:40:17;;;;;;;2.70;2.50;;;23.20;1.00;;;;;;4876694;29;20450;-75
2023/10/11 17:42:46;;;;;;;0.60;0.20;;;23.20;1.00;;;;;;4876108;29;20530;-73
2023/10/11 17:45:16;;;;;;;0.80;0.37;;;23.00;1.00;;;;;;4875688;29;20461;-76
2023/10/11 17:47:44;;;;;;;0.90;0.40;;;23.10;1.00;;;;;;4876046;29;20465;-74